createdAt,value
2019-01-08T00:02:00.770Z,5.88
2019-01-08T00:04:28.760Z,5.88
2019-01-08T00:06:59.939Z,5.94
2019-01-08T00:09:28.945Z,6.01
2019-01-08T00:11:57.526Z,6.03
2019-01-08T00:14:25.618Z,6.03
2019-01-08T00:16:53.755Z,6.06
2019-01-08T00:19:21.753Z,6.10
2019-01-08T00:21:50.252Z,6.14
2019-01-08T00:24:18.363Z,6.18
2019-01-08T00:26:46.334Z,6.19
2019-01-08T00:29:14.254Z,6.21
2019-01-08T00:31:42.245Z,6.20
2019-01-08T00:34:11.381Z,6.25
2019-01-08T00:36:40.241Z,6.29
2019-01-08T00:39:08.190Z,6.28
2019-01-08T00:41:36.301Z,6.34
2019-01-08T00:44:04.301Z,6.34
2019-01-08T00:46:32.803Z,6.44
2019-01-08T00:49:00.832Z,6.54
2019-01-08T00:51:29.177Z,6.56
2019-01-08T00:53:57.418Z,6.55
2019-01-08T00:56:26.411Z,6.56
2019-01-08T00:58:54.434Z,6.56
2019-01-08T01:01:22.412Z,6.61
2019-01-08T01:03:50.748Z,6.62
2019-01-08T01:06:20.370Z,6.53
2019-01-08T01:08:48.320Z,6.44
2019-01-08T01:11:17.181Z,6.37
2019-01-08T01:13:45.709Z,6.39
2019-01-08T01:16:13.620Z,6.51
2019-01-08T01:18:41.910Z,6.51
2019-01-08T01:21:10.049Z,6.50
2019-01-08T01:23:38.437Z,6.59
2019-01-08T01:26:09.399Z,6.58
2019-01-08T01:28:40.630Z,6.60
2019-01-08T01:31:08.527Z,6.54
2019-01-08T01:33:36.935Z,6.65
2019-01-08T01:36:04.876Z,6.63
2019-01-08T01:38:33.868Z,6.59
2019-01-08T01:41:02.463Z,6.55
2019-01-08T01:43:30.894Z,6.58
2019-01-08T01:45:58.783Z,6.55
2019-01-08T01:48:27.070Z,6.64
2019-01-08T01:50:56.025Z,6.64
2019-01-08T01:53:24.371Z,6.63
2019-01-08T01:55:52.372Z,6.65
2019-01-08T01:58:23.316Z,6.65
2019-01-08T02:00:51.357Z,6.65
2019-01-08T02:03:21.013Z,6.76
2019-01-08T02:05:49.007Z,6.69
2019-01-08T02:08:17.313Z,6.74
2019-01-08T02:10:46.680Z,6.76
2019-01-08T02:13:15.339Z,6.76
2019-01-08T02:15:43.446Z,6.76
2019-01-08T02:18:11.471Z,6.72
2019-01-08T02:20:39.986Z,6.75
2019-01-08T02:23:08.642Z,6.71
2019-01-08T02:25:36.845Z,6.75
2019-01-08T02:28:04.954Z,6.76
2019-01-08T02:30:33.293Z,6.79
2019-01-08T02:33:01.301Z,6.71
2019-01-08T02:35:29.288Z,6.72
2019-01-08T02:37:57.275Z,6.72
2019-01-08T02:40:25.674Z,6.73
2019-01-08T02:42:54.673Z,6.68
2019-01-08T02:45:22.736Z,6.65
2019-01-08T02:47:50.649Z,6.70
2019-01-08T02:50:18.682Z,6.77
2019-01-08T02:52:47.622Z,6.87
2019-01-08T02:55:16.747Z,6.78
2019-01-08T02:57:44.667Z,6.73
2019-01-08T03:00:13.058Z,6.76
2019-01-08T03:02:42.076Z,6.74
2019-01-08T03:05:10.084Z,6.78
2019-01-08T03:07:38.937Z,6.79
2019-01-08T03:10:07.586Z,6.76
2019-01-08T03:12:35.815Z,6.77
2019-01-08T03:15:06.351Z,6.73
2019-01-08T03:17:38.050Z,6.81
2019-01-08T03:20:06.391Z,6.79
2019-01-08T03:22:34.411Z,6.77
2019-01-08T03:25:05.793Z,6.75
2019-01-08T03:27:34.082Z,6.77
2019-01-08T03:30:05.659Z,6.77
2019-01-08T03:32:34.688Z,6.73
2019-01-08T03:35:02.817Z,6.81
2019-01-08T03:37:31.046Z,6.81
2019-01-08T03:39:59.817Z,6.70
2019-01-08T03:42:28.606Z,6.70
2019-01-08T03:44:56.530Z,6.63
2019-01-08T03:47:24.652Z,6.62
2019-01-08T03:49:52.608Z,6.61
2019-01-08T03:52:22.149Z,6.65
2019-01-08T03:54:52.620Z,6.67
2019-01-08T03:57:21.334Z,6.66
2019-01-08T03:59:49.325Z,6.62
2019-01-08T04:02:17.756Z,6.60
2019-01-08T04:04:55.370Z,6.57
2019-01-08T04:07:23.588Z,6.59
2019-01-08T04:09:52.138Z,6.59
2019-01-08T04:12:20.112Z,6.55
2019-01-08T04:14:48.352Z,6.51
2019-01-08T04:17:16.499Z,6.48
2019-01-08T04:19:44.988Z,6.46
2019-01-08T04:22:13.346Z,6.45
2019-01-08T04:24:41.553Z,6.40
2019-01-08T04:27:09.928Z,6.40
2019-01-08T04:29:50.197Z,6.39
2019-01-08T04:32:11.556Z,6.39
2019-01-08T04:34:39.952Z,6.36
2019-01-08T04:37:08.037Z,6.30
2019-01-08T04:39:36.040Z,6.31
2019-01-08T04:42:04.233Z,6.30
2019-01-08T04:44:32.702Z,6.30
2019-01-08T04:47:01.840Z,6.26
2019-01-08T04:49:29.923Z,6.21
2019-01-08T04:51:57.844Z,6.22
2019-01-08T04:54:26.855Z,6.21
2019-01-08T04:56:54.824Z,6.17
2019-01-08T04:59:24.675Z,6.18
2019-01-08T05:01:52.927Z,6.19
2019-01-08T05:04:21.754Z,6.18
2019-01-08T05:06:50.142Z,6.15
2019-01-08T05:09:18.419Z,6.18
2019-01-08T05:11:46.884Z,6.18
2019-01-08T05:14:14.909Z,6.26
2019-01-08T05:16:43.216Z,6.19
2019-01-08T05:19:12.365Z,6.24
2019-01-08T05:21:41.935Z,6.18
2019-01-08T05:24:10.668Z,6.13
2019-01-08T05:26:40.020Z,6.12
2019-01-08T05:29:10.924Z,6.10
2019-01-08T05:31:38.888Z,6.09
2019-01-08T05:34:06.885Z,6.08
2019-01-08T05:36:35.474Z,5.95
2019-01-08T05:39:04.621Z,5.88
2019-01-08T05:41:32.681Z,5.79
2019-01-08T05:44:01.784Z,5.77
2019-01-08T05:46:30.281Z,5.83
2019-01-08T05:48:58.287Z,5.81
2019-01-08T05:51:27.724Z,5.77
2019-01-08T05:53:59.872Z,5.75
2019-01-08T05:56:28.232Z,5.81
2019-01-08T05:58:56.226Z,5.88
2019-01-08T06:01:24.158Z,5.92
2019-01-08T06:03:52.611Z,5.95
2019-01-08T06:06:20.989Z,5.96
2019-01-08T06:08:48.991Z,5.98
2019-01-08T06:11:16.993Z,5.98
2019-01-08T06:13:45.510Z,6.00
2019-01-08T06:16:13.535Z,6.01
2019-01-08T06:18:41.478Z,5.99
2019-01-08T06:21:10.713Z,6.13
2019-01-08T06:23:39.555Z,6.05
2019-01-08T06:26:07.547Z,6.08
2019-01-08T06:28:36.232Z,6.17
2019-01-08T06:31:07.236Z,6.11
2019-01-08T06:33:35.243Z,6.17
2019-01-08T06:36:03.333Z,6.16
2019-01-08T06:38:31.704Z,6.10
2019-01-08T06:40:59.649Z,6.10
2019-01-08T06:43:31.139Z,6.05
2019-01-08T06:45:59.183Z,6.01
2019-01-08T06:48:27.955Z,5.99
2019-01-08T06:51:02.033Z,5.98
2019-01-08T06:53:30.816Z,6.03
2019-01-08T06:55:58.891Z,6.03
2019-01-08T06:58:28.022Z,6.14
2019-01-08T07:00:56.021Z,6.13
2019-01-08T07:03:24.022Z,6.16
2019-01-08T07:05:55.541Z,6.13
2019-01-08T07:08:23.490Z,6.12
2019-01-08T07:10:51.464Z,6.22
2019-01-08T07:13:20.926Z,6.19
2019-01-08T07:15:49.599Z,6.17
2019-01-08T07:18:17.658Z,6.22
2019-01-08T07:20:45.813Z,6.24
2019-01-08T07:23:13.802Z,6.21
2019-01-08T07:25:42.601Z,6.22
2019-01-08T07:28:11.191Z,6.21
2019-01-08T07:30:41.741Z,6.24
2019-01-08T07:33:09.151Z,6.27
2019-01-08T07:35:37.546Z,6.31
2019-01-08T07:38:05.673Z,6.33
2019-01-08T07:40:35.373Z,6.29
2019-01-08T07:43:03.778Z,6.29
2019-01-08T07:45:32.244Z,6.23
2019-01-08T07:48:00.360Z,6.22
2019-01-08T07:50:31.264Z,6.20
2019-01-08T07:53:00.139Z,6.23
2019-01-08T07:55:28.198Z,6.27
2019-01-08T07:57:56.483Z,6.29
2019-01-08T08:00:25.463Z,6.30
2019-01-08T08:02:53.758Z,6.27
2019-01-08T08:05:30.988Z,6.27
2019-01-08T08:07:59.609Z,6.25
2019-01-08T08:10:27.648Z,6.30
2019-01-08T08:12:55.827Z,6.25
2019-01-08T08:15:24.021Z,6.25
2019-01-08T08:17:53.579Z,6.23
2019-01-08T08:20:24.910Z,6.23
2019-01-08T08:22:55.920Z,6.28
2019-01-08T08:25:24.516Z,6.27
2019-01-08T08:27:52.526Z,6.23
2019-01-08T08:30:20.512Z,6.22
2019-01-08T08:32:49.165Z,6.21
2019-01-08T08:35:20.852Z,6.20
2019-01-08T08:37:49.268Z,6.10
2019-01-08T08:40:17.386Z,6.03
2019-01-08T08:42:46.127Z,6.02
2019-01-08T08:45:14.399Z,6.03
2019-01-08T08:47:42.929Z,5.99
2019-01-08T08:50:11.843Z,5.93
2019-01-08T08:52:40.156Z,5.86
2019-01-08T08:55:08.154Z,5.74
2019-01-08T08:57:36.864Z,5.72
2019-01-08T09:00:07.112Z,5.84
2019-01-08T09:02:35.293Z,5.81
2019-01-08T09:05:03.892Z,5.82
2019-01-08T09:07:32.022Z,5.76
2019-01-08T09:09:59.980Z,5.71
2019-01-08T09:12:28.328Z,5.68
2019-01-08T09:14:57.583Z,5.67
2019-01-08T09:17:25.663Z,5.61
2019-01-08T09:19:53.873Z,5.62
2019-01-08T09:22:22.400Z,5.57
2019-01-08T09:24:50.881Z,5.49
2019-01-08T09:27:19.331Z,5.47
2019-01-08T09:29:49.103Z,5.44
2019-01-08T09:32:19.384Z,5.45
2019-01-08T09:34:47.329Z,5.47
2019-01-08T09:37:15.512Z,5.49
2019-01-08T09:39:44.086Z,5.45
2019-01-08T09:42:12.563Z,5.45
2019-01-08T09:44:40.562Z,5.46
2019-01-08T09:47:08.535Z,5.44
2019-01-08T09:49:36.749Z,5.50
2019-01-08T09:52:05.378Z,5.50
2019-01-08T09:54:34.256Z,5.54
2019-01-08T09:57:02.363Z,5.53
2019-01-08T09:59:32.436Z,5.52
2019-01-08T10:02:01.846Z,5.61
2019-01-08T10:04:30.544Z,5.69
2019-01-08T10:06:58.782Z,5.63
2019-01-08T10:09:26.851Z,5.67
2019-01-08T10:11:55.399Z,5.71
2019-01-08T10:14:23.533Z,5.71
2019-01-08T10:16:51.527Z,5.77
2019-01-08T10:19:19.506Z,5.82
2019-01-08T10:21:47.755Z,5.88
2019-01-08T10:24:15.822Z,5.91
2019-01-08T10:26:43.777Z,5.97
2019-01-08T10:29:12.975Z,6.05
2019-01-08T10:31:41.426Z,6.14
2019-01-08T10:34:13.853Z,6.17
2019-01-08T10:36:41.819Z,6.26
2019-01-08T10:39:12.611Z,6.31
2019-01-08T10:41:44.059Z,6.41
2019-01-08T10:44:12.280Z,6.44
2019-01-08T10:46:40.510Z,6.50
2019-01-08T10:49:08.533Z,6.43
2019-01-08T10:51:37.120Z,6.36
2019-01-08T10:54:06.293Z,6.40
2019-01-08T10:56:37.285Z,6.41
2019-01-08T10:59:07.677Z,6.50
2019-01-08T11:01:40.776Z,6.54
2019-01-08T11:04:06.630Z,6.50
2019-01-08T11:06:34.794Z,6.48
2019-01-08T11:09:04.054Z,6.51
2019-01-08T11:11:34.399Z,6.56
2019-01-08T11:14:02.872Z,6.60
2019-01-08T11:16:30.859Z,6.72
2019-01-08T11:18:58.875Z,6.73
2019-01-08T11:21:27.130Z,6.69
2019-01-08T11:23:55.259Z,6.64
2019-01-08T11:26:23.701Z,6.49
2019-01-08T11:28:53.413Z,6.56
2019-01-08T11:31:23.423Z,6.57
2019-01-08T11:33:51.643Z,6.55
2019-01-08T11:36:19.606Z,6.62
2019-01-08T11:38:48.115Z,6.58
2019-01-08T11:41:17.974Z,6.42
2019-01-08T11:43:46.068Z,6.41
2019-01-08T11:46:17.748Z,6.45
2019-01-08T11:48:46.478Z,6.52
2019-01-08T11:51:17.023Z,6.47
2019-01-08T11:53:46.153Z,6.42
2019-01-08T11:56:20.057Z,6.41
2019-01-08T11:58:48.972Z,6.45
2019-01-08T12:01:19.330Z,6.59
2019-01-08T12:03:51.482Z,6.74
2019-01-08T12:06:20.630Z,6.72
2019-01-08T12:08:52.270Z,6.82
2019-01-08T12:11:21.432Z,6.89
2019-01-08T12:13:51.769Z,6.85
2019-01-08T12:16:22.217Z,6.88
2019-01-08T12:18:51.269Z,6.87
2019-01-08T12:21:20.270Z,7.03
2019-01-08T12:23:49.316Z,7.13
2019-01-08T12:26:18.289Z,7.16
2019-01-08T12:28:47.781Z,7.12
2019-01-08T12:31:17.560Z,7.02
2019-01-08T12:33:47.147Z,6.72
2019-01-08T12:36:16.112Z,6.59
2019-01-08T12:38:46.479Z,6.93
2019-01-08T12:41:15.509Z,6.82
2019-01-08T12:43:44.618Z,6.87
2019-01-08T12:46:13.606Z,6.79
2019-01-08T12:48:42.708Z,6.75
2019-01-08T12:51:13.990Z,6.71
2019-01-08T12:53:48.175Z,6.47
2019-01-08T12:56:17.611Z,6.13
2019-01-08T12:58:46.557Z,5.92
2019-01-08T13:01:16.054Z,5.82
2019-01-08T13:03:45.069Z,5.83
2019-01-08T13:06:14.141Z,6.04
2019-01-08T13:08:51.396Z,6.17
2019-01-08T13:11:20.796Z,6.26
2019-01-08T13:13:49.933Z,6.19
2019-01-08T13:16:19.109Z,6.17
2019-01-08T13:18:48.451Z,6.09
2019-01-08T13:21:17.764Z,6.04
2019-01-08T13:23:47.510Z,6.00
2019-01-08T13:26:16.554Z,5.93
2019-01-08T13:28:46.375Z,5.94
2019-01-08T13:31:16.950Z,6.00
2019-01-08T13:33:46.221Z,5.94
2019-01-08T13:36:15.827Z,5.94
2019-01-08T13:38:44.885Z,5.93
2019-01-08T13:41:14.080Z,5.79
2019-01-08T13:43:43.550Z,5.78
2019-01-08T13:46:14.168Z,5.75
2019-01-08T13:48:45.861Z,5.71
2019-01-08T13:51:17.429Z,5.76
2019-01-08T13:53:46.427Z,5.80
2019-01-08T13:56:15.645Z,5.88
2019-01-08T13:58:44.633Z,5.85
2019-01-08T14:01:13.649Z,5.80
2019-01-08T14:03:42.694Z,5.84
2019-01-08T14:06:12.512Z,5.87
2019-01-08T14:08:41.630Z,5.71
2019-01-08T14:11:10.686Z,5.60
2019-01-08T14:13:39.945Z,5.64
2019-01-08T14:16:09.362Z,5.85
2019-01-08T14:18:39.492Z,5.96
2019-01-08T14:21:12.363Z,6.06
2019-01-08T14:23:41.777Z,6.08
2019-01-08T14:26:11.746Z,6.11
2019-01-08T14:28:41.714Z,6.14
2019-01-08T14:31:12.183Z,5.89
2019-01-08T14:33:42.240Z,5.77
2019-01-08T14:36:11.389Z,5.67
2019-01-08T14:38:41.290Z,5.57
2019-01-08T14:41:10.886Z,5.52
2019-01-08T14:43:40.104Z,5.48
2019-01-08T14:46:09.423Z,5.29
2019-01-08T14:48:39.272Z,5.10
2019-01-08T14:51:08.345Z,4.91
2019-01-08T14:53:39.015Z,4.92
2019-01-08T14:56:10.046Z,5.06
2019-01-08T14:58:41.864Z,5.20
2019-01-08T15:01:10.812Z,5.32
2019-01-08T15:03:43.080Z,5.19
2019-01-08T15:06:12.078Z,5.28
2019-01-08T15:08:42.119Z,5.24
2019-01-08T15:11:11.299Z,5.29
2019-01-08T15:13:42.060Z,5.35
2019-01-08T15:16:11.017Z,5.38
2019-01-08T15:18:49.251Z,5.33
2019-01-08T15:21:22.123Z,5.40
2019-01-08T15:23:52.334Z,5.35
2019-01-08T15:26:21.332Z,5.42
2019-01-08T15:28:50.988Z,5.37
2019-01-08T15:31:19.954Z,5.35
2019-01-08T15:33:49.466Z,5.42
2019-01-08T15:36:18.462Z,5.45
2019-01-08T15:38:48.188Z,5.52
2019-01-08T15:41:18.548Z,5.46
2019-01-08T15:43:47.967Z,5.43
2019-01-08T15:46:17.176Z,5.45
2019-01-08T15:48:47.189Z,5.46
2019-01-08T15:51:16.484Z,5.40
2019-01-08T15:53:46.790Z,5.42
2019-01-08T15:56:15.992Z,5.49
2019-01-08T15:58:45.497Z,5.45
2019-01-08T16:01:14.472Z,5.48
2019-01-08T16:03:44.097Z,5.43
2019-01-08T16:06:13.723Z,5.37
2019-01-08T16:08:43.094Z,5.42
2019-01-08T16:11:12.136Z,5.41
2019-01-08T16:13:41.139Z,5.41
2019-01-08T16:16:10.202Z,5.32
2019-01-08T16:18:39.911Z,5.28
2019-01-08T16:21:10.477Z,5.18
2019-01-08T16:23:39.957Z,5.34
2019-01-08T16:26:10.164Z,5.23
2019-01-08T16:28:39.920Z,5.15
2019-01-08T16:31:10.938Z,5.07
2019-01-08T16:33:40.873Z,5.01
2019-01-08T16:36:10.092Z,5.01
2019-01-08T16:38:42.985Z,4.91
2019-01-08T16:41:13.249Z,4.10
2019-01-08T16:43:46.292Z,3.50
2019-01-08T16:46:15.479Z,3.33
2019-01-08T16:48:44.480Z,3.50
2019-01-08T16:51:13.863Z,4.00
2019-01-08T16:53:44.439Z,4.07
2019-01-08T16:56:13.409Z,4.13
2019-01-08T16:58:42.670Z,4.24
2019-01-08T17:01:11.854Z,4.28
2019-01-08T17:03:42.480Z,4.30
2019-01-08T17:06:14.204Z,4.34
2019-01-08T17:08:44.304Z,4.45
2019-01-08T17:11:18.444Z,4.63
2019-01-08T17:13:47.820Z,4.72
2019-01-08T17:16:18.251Z,4.87
2019-01-08T17:18:47.904Z,4.77
2019-01-08T17:21:22.027Z,4.85
2019-01-08T17:23:52.739Z,4.83
2019-01-08T17:26:23.166Z,4.83
2019-01-08T17:28:53.515Z,4.83
2019-01-08T17:31:27.601Z,4.86
2019-01-08T17:34:00.905Z,4.99
2019-01-08T17:36:31.875Z,5.07
2019-01-08T17:39:05.451Z,5.08
2019-01-08T17:41:37.956Z,5.11
2019-01-08T17:44:08.836Z,4.90
2019-01-08T17:46:42.221Z,4.89
2019-01-08T17:49:13.600Z,4.84
2019-01-08T17:51:47.899Z,4.70
2019-01-08T17:54:17.879Z,4.63
2019-01-08T17:56:48.929Z,4.57
2019-01-08T17:59:22.995Z,4.60
2019-01-08T18:02:04.241Z,4.57
2019-01-08T18:04:33.546Z,4.56
2019-01-08T18:07:03.985Z,4.49
2019-01-08T18:09:35.440Z,4.40
2019-01-08T18:12:09.177Z,4.36
2019-01-08T18:14:39.337Z,4.36
2019-01-08T18:17:09.042Z,4.42
2019-01-08T18:19:44.024Z,4.50
2019-01-08T18:22:13.921Z,4.53
2019-01-08T18:24:44.807Z,4.66
2019-01-08T18:27:19.510Z,4.73
2019-01-08T18:29:50.709Z,4.73
2019-01-08T18:32:21.771Z,4.78
2019-01-08T18:34:51.584Z,4.81
2019-01-08T18:37:22.673Z,4.84
2019-01-08T18:39:51.916Z,4.82
2019-01-08T18:42:21.928Z,4.93
2019-01-08T18:44:51.487Z,4.87
2019-01-08T18:47:20.949Z,4.82
2019-01-08T18:49:52.762Z,4.81
2019-01-08T18:52:23.990Z,4.80
2019-01-08T18:54:53.356Z,4.83
2019-01-08T18:57:27.633Z,4.80
2019-01-08T19:00:01.181Z,4.79
2019-01-08T19:02:32.667Z,4.79
2019-01-08T19:05:01.879Z,4.76
2019-01-08T19:07:37.954Z,4.72
2019-01-08T19:10:11.008Z,4.76
2019-01-08T19:12:43.230Z,4.74
2019-01-08T19:15:15.842Z,4.69
2019-01-08T19:17:46.268Z,4.62
2019-01-08T19:20:15.887Z,4.59
2019-01-08T19:22:45.372Z,4.57
2019-01-08T19:25:15.287Z,4.57
2019-01-08T19:27:47.187Z,4.61
2019-01-08T19:30:22.055Z,4.59
2019-01-08T19:32:51.143Z,4.56
2019-01-08T19:35:20.481Z,4.56
2019-01-08T19:37:54.059Z,4.63
2019-01-08T19:40:27.597Z,4.68
2019-01-08T19:43:00.953Z,4.62
2019-01-08T19:45:32.709Z,4.61
2019-01-08T19:48:01.962Z,4.61
2019-01-08T19:50:32.889Z,4.55
2019-01-08T19:53:02.044Z,4.48
2019-01-08T19:55:35.763Z,4.53
2019-01-08T19:58:08.824Z,4.55
2019-01-08T20:00:38.428Z,4.55
2019-01-08T20:03:10.164Z,4.57
2019-01-08T20:05:40.648Z,4.60
2019-01-08T20:08:55.010Z,4.62
2019-01-08T20:11:38.741Z,4.61
2019-01-08T20:14:30.892Z,4.62
2019-01-08T20:17:07.703Z,4.62
2019-01-08T20:19:37.883Z,4.65
2019-01-08T20:22:10.827Z,4.68
2019-01-08T20:24:43.510Z,4.69
2019-01-08T20:27:22.504Z,4.64
2019-01-08T20:29:51.985Z,4.57
2019-01-08T20:32:25.249Z,4.60
2019-01-08T20:35:15.439Z,4.57
2019-01-08T20:37:47.221Z,4.50
2019-01-08T20:40:16.749Z,4.45
2019-01-08T20:42:46.676Z,4.44
2019-01-08T20:45:19.872Z,4.45
2019-01-08T20:48:15.307Z,4.48
2019-01-08T20:50:48.322Z,4.48
2019-01-08T20:53:23.856Z,4.45
2019-01-08T20:55:59.942Z,4.37
2019-01-08T20:58:30.065Z,4.33
2019-01-08T21:01:00.929Z,4.34
2019-01-08T21:03:30.146Z,4.31
2019-01-08T21:06:04.750Z,4.30
2019-01-08T21:08:35.759Z,4.31
2019-01-08T21:11:06.271Z,4.38
2019-01-08T21:13:36.518Z,4.40
2019-01-08T21:16:07.394Z,4.34
2019-01-08T21:18:50.191Z,4.23
2019-01-08T21:21:19.935Z,4.19
2019-01-08T21:23:50.088Z,4.12
2019-01-08T21:29:32.929Z,4.03
2019-01-08T21:32:21.237Z,4.16
2019-01-08T21:35:08.538Z,4.11
2019-01-08T21:37:55.593Z,4.17
2019-01-08T21:40:43.840Z,4.21
2019-01-08T21:43:30.675Z,4.23
2019-01-08T21:46:19.364Z,4.11
2019-01-08T21:49:11.775Z,4.05
2019-01-08T21:52:05.612Z,4.03
2019-01-08T21:57:41.913Z,4.01
2019-01-08T22:03:06.782Z,4.06
2019-01-08T22:05:34.806Z,4.11
2019-01-08T22:08:21.001Z,4.17
2019-01-08T22:10:49.054Z,4.19
2019-01-08T22:13:17.327Z,4.22
2019-01-08T22:15:45.721Z,4.23
2019-01-08T22:18:13.534Z,4.22
2019-01-08T22:20:41.310Z,4.04
2019-01-08T22:23:09.520Z,4.04
2019-01-08T22:25:37.337Z,3.95
2019-01-08T22:28:05.214Z,3.98
2019-01-08T22:30:33.096Z,3.94
2019-01-08T22:33:04.158Z,3.95
2019-01-08T22:35:32.691Z,3.97
2019-01-08T22:38:00.496Z,4.00
2019-01-08T22:40:28.337Z,4.01
2019-01-08T22:42:56.194Z,4.05
2019-01-08T22:45:23.971Z,3.98
2019-01-08T22:47:55.178Z,3.91
2019-01-08T22:50:23.073Z,3.85
2019-01-08T22:52:51.943Z,3.85
2019-01-08T22:55:19.692Z,3.79
2019-01-08T22:57:49.082Z,3.70
2019-01-08T23:00:37.068Z,3.56
2019-01-08T23:03:05.200Z,3.33
2019-01-08T23:05:33.678Z,3.17
2019-01-08T23:08:01.535Z,3.16
2019-01-08T23:10:31.143Z,3.17
2019-01-08T23:13:00.239Z,3.15
2019-01-08T23:15:28.716Z,3.10
2019-01-08T23:17:57.299Z,3.07
2019-01-08T23:20:25.185Z,3.02
2019-01-08T23:22:53.444Z,2.99
2019-01-08T23:25:21.648Z,3.03
2019-01-08T23:27:49.434Z,3.06
2019-01-08T23:30:17.367Z,3.02
2019-01-08T23:32:45.155Z,2.96
2019-01-08T23:35:19.519Z,2.86
2019-01-08T23:37:44.274Z,2.72
2019-01-08T23:40:12.067Z,2.54
2019-01-08T23:42:39.918Z,2.38
2019-01-08T23:45:08.971Z,2.33
2019-01-08T23:47:36.984Z,2.27
2019-01-08T23:50:05.024Z,2.26
2019-01-08T23:52:48.721Z,2.28
2019-01-08T23:55:20.221Z,2.22
2019-01-08T23:57:50.733Z,2.19
